createdAt,value
2019-04-23T00:02:53.718Z,4.60
2019-04-23T00:05:41.439Z,4.78
2019-04-23T00:10:35.111Z,4.25
2019-04-23T00:13:19.728Z,3.75
2019-04-23T00:15:58.690Z,4.20
2019-04-23T00:18:34.099Z,5.28
2019-04-23T00:21:15.555Z,3.85
2019-04-23T00:23:53.119Z,4.00
2019-04-23T00:26:24.085Z,4.75
2019-04-23T00:31:24.731Z,4.58
2019-04-23T00:33:57.787Z,3.62
2019-04-23T00:36:36.413Z,3.92
2019-04-23T00:39:01.346Z,5.60
2019-04-23T00:41:36.641Z,4.08
2019-04-23T00:44:06.301Z,4.08
2019-04-23T00:46:45.261Z,4.85
2019-04-23T00:49:21.149Z,4.28
2019-04-23T00:51:52.933Z,4.47
2019-04-23T00:54:39.385Z,4.37
2019-04-23T00:59:26.928Z,4.40
2019-04-23T01:02:05.143Z,5.40
2019-04-23T01:04:32.735Z,5.12
2019-04-23T01:07:04.355Z,5.12
2019-04-23T01:09:52.425Z,5.12
2019-04-23T01:12:24.213Z,5.72
2019-04-23T01:14:56.335Z,6.33
2019-04-23T01:17:35.056Z,5.53
2019-04-23T01:20:08.096Z,5.58
2019-04-23T01:22:25.168Z,5.35
2019-04-23T01:25:11.228Z,5.17
2019-04-23T01:28:18.978Z,4.95
2019-04-23T01:30:55.355Z,5.72
2019-04-23T01:36:11.098Z,5.72
2019-04-23T01:38:37.522Z,6.78
2019-04-23T01:41:09.782Z,5.50
2019-04-23T01:46:16.430Z,5.35
2019-04-23T01:48:46.869Z,5.58
2019-04-23T01:51:20.410Z,5.90
2019-04-23T01:53:54.948Z,6.30
2019-04-23T01:56:24.438Z,4.92
2019-04-23T01:58:59.169Z,8.13
2019-04-23T02:04:05.741Z,4.85
2019-04-23T02:06:51.735Z,5.30
2019-04-23T02:11:37.304Z,4.65
2019-04-23T02:14:14.348Z,5.70
2019-04-23T02:16:53.213Z,5.37
2019-04-23T02:19:23.282Z,5.10
2019-04-23T02:22:05.065Z,4.92
2019-04-23T02:24:42.999Z,4.70
2019-04-23T02:27:17.245Z,5.08
2019-04-23T02:29:51.419Z,5.30
2019-04-23T02:32:31.802Z,5.80
2019-04-23T02:35:11.757Z,10.63
2019-04-23T02:37:45.717Z,5.15
2019-04-23T02:43:00.853Z,4.95
2019-04-23T02:45:10.112Z,5.87
2019-04-23T02:47:48.721Z,5.10
2019-04-23T02:50:31.151Z,6.65
2019-04-23T02:52:47.269Z,4.45
2019-04-23T02:55:27.057Z,4.65
2019-04-23T02:57:50.353Z,5.30
2019-04-23T03:00:27.683Z,5.33
2019-04-23T03:03:14.094Z,4.60
2019-04-23T03:05:36.019Z,5.20
2019-04-23T03:07:59.942Z,7.78
2019-04-23T03:10:44.828Z,4.70
2019-04-23T03:18:53.638Z,4.58
2019-04-23T03:27:21.579Z,4.90
2019-04-23T03:40:07.907Z,6.28
2019-04-23T03:42:42.774Z,5.35
2019-04-23T03:50:24.180Z,5.47
2019-04-23T03:52:44.766Z,5.58
2019-04-23T03:57:52.662Z,6.87
2019-04-23T04:00:51.724Z,5.10
2019-04-23T04:03:10.410Z,6.78
2019-04-23T04:05:49.307Z,5.22
2019-04-23T04:13:24.427Z,4.65
2019-04-23T04:15:55.277Z,5.22
2019-04-23T04:21:01.061Z,5.15
2019-04-23T04:23:41.084Z,7.15
2019-04-23T04:28:38.947Z,7.15
2019-04-23T04:31:07.499Z,5.67
2019-04-23T04:33:58.719Z,6.72
2019-04-23T04:38:44.891Z,5.55
2019-04-23T04:41:25.793Z,8.68
2019-04-23T04:44:05.481Z,8.78
2019-04-23T04:51:39.616Z,6.28
2019-04-23T04:54:09.367Z,6.50
2019-04-23T04:59:11.627Z,8.33
2019-04-23T05:01:56.131Z,7.25
2019-04-23T05:04:23.413Z,7.17
2019-04-23T05:07:04.235Z,6.25
2019-04-23T05:09:32.629Z,6.37
2019-04-23T05:12:09.141Z,7.53
2019-04-23T05:14:52.565Z,6.60
2019-04-23T05:17:13.494Z,5.97
2019-04-23T05:19:53.385Z,6.20
2019-04-23T05:22:17.107Z,6.58
2019-04-23T05:24:39.914Z,7.85
2019-04-23T05:27:10.237Z,8.80
2019-04-23T05:29:58.855Z,7.15
2019-04-23T05:32:19.345Z,8.65
2019-04-23T05:34:57.667Z,14.45
2019-04-23T05:37:35.508Z,10.20
2019-04-23T05:40:06.619Z,8.05
2019-04-23T05:42:33.076Z,7.50
2019-04-23T05:45:06.506Z,8.90
2019-04-23T05:47:38.110Z,9.75
2019-04-23T05:50:22.386Z,9.75
2019-04-23T05:52:46.437Z,7.28
2019-04-23T05:55:16.930Z,7.62
2019-04-23T05:57:53.669Z,10.08
2019-04-23T06:03:04.727Z,12.65
2019-04-23T06:05:33.882Z,8.60
2019-04-23T06:08:25.036Z,7.80
2019-04-23T06:10:39.566Z,7.53
2019-04-23T06:13:16.760Z,8.23
2019-04-23T06:15:44.049Z,6.80
2019-04-23T06:18:25.016Z,9.30
2019-04-23T06:20:58.951Z,6.47
2019-04-23T06:23:28.834Z,5.67
2019-04-23T06:26:08.499Z,5.72
2019-04-23T06:28:27.563Z,6.25
2019-04-23T06:31:15.188Z,7.80
2019-04-23T06:36:12.423Z,6.87
2019-04-23T06:38:53.372Z,8.95
2019-04-23T06:41:15.696Z,7.03
2019-04-23T06:44:09.199Z,7.37
2019-04-23T06:46:39.868Z,7.17
2019-04-23T06:49:13.258Z,6.08
2019-04-23T06:51:46.582Z,7.60
2019-04-23T06:54:27.980Z,7.15
2019-04-23T06:56:53.040Z,7.62
2019-04-23T06:59:24.710Z,7.22
2019-04-23T07:02:05.185Z,7.92
2019-04-23T07:04:33.171Z,6.55
2019-04-23T07:07:24.163Z,7.33
2019-04-23T07:09:29.289Z,6.95
2019-04-23T07:12:08.689Z,6.92
2019-04-23T07:14:47.652Z,8.40
2019-04-23T07:17:08.530Z,7.75
2019-04-23T07:20:04.549Z,7.37
2019-04-23T07:24:52.763Z,6.83
2019-04-23T07:27:24.595Z,7.90
2019-04-23T07:30:02.110Z,6.87
2019-04-23T07:32:31.196Z,8.05
2019-04-23T07:35:07.079Z,7.40
2019-04-23T07:37:43.173Z,7.72
2019-04-23T07:43:08.739Z,7.42
2019-04-23T07:46:02.256Z,8.00
2019-04-23T07:48:16.549Z,8.15
2019-04-23T07:51:20.946Z,8.25
2019-04-23T07:53:53.471Z,8.95
2019-04-23T07:56:07.711Z,7.65
2019-04-23T07:58:33.176Z,7.35
2019-04-23T08:01:13.809Z,6.95
2019-04-23T08:03:48.255Z,7.53
2019-04-23T08:06:16.465Z,7.67
2019-04-23T08:08:56.431Z,8.18
2019-04-23T08:11:33.230Z,8.53
2019-04-23T08:14:03.370Z,8.70
2019-04-23T08:16:33.954Z,7.80
2019-04-23T08:19:24.459Z,8.00
2019-04-23T08:21:37.810Z,8.25
2019-04-23T08:24:38.942Z,9.60
2019-04-23T08:27:28.035Z,7.15
2019-04-23T08:30:03.251Z,8.13
2019-04-23T08:32:38.557Z,9.05
2019-04-23T08:35:14.180Z,8.90
2019-04-23T08:38:00.961Z,7.65
2019-04-23T08:40:19.925Z,8.48
2019-04-23T08:42:58.924Z,8.30
2019-04-23T08:45:46.247Z,8.13
2019-04-23T08:51:19.523Z,8.40
2019-04-23T09:01:05.784Z,8.13
2019-04-23T09:03:36.159Z,8.80
2019-04-23T09:08:37.445Z,8.83
2019-04-23T09:11:32.458Z,8.00
2019-04-23T09:16:22.384Z,8.25
2019-04-23T09:18:56.296Z,9.20
2019-04-23T09:21:27.958Z,10.80
2019-04-23T09:23:58.507Z,8.63
2019-04-23T09:26:33.269Z,8.45
2019-04-23T09:29:04.593Z,9.33
2019-04-23T09:32:21.125Z,8.53
2019-04-23T09:34:54.166Z,8.73
2019-04-23T09:37:26.779Z,8.90
2019-04-23T09:40:14.959Z,8.63
2019-04-23T09:48:10.198Z,9.25
2019-04-23T09:50:57.228Z,12.13
2019-04-23T09:53:29.559Z,8.65
2019-04-23T09:55:57.105Z,8.85
2019-04-23T09:58:41.510Z,8.20
2019-04-23T10:01:25.939Z,8.58
2019-04-23T10:03:50.592Z,9.23
2019-04-23T10:06:19.155Z,10.80
2019-04-23T10:08:51.380Z,8.45
2019-04-23T10:11:18.170Z,9.93
2019-04-23T10:13:50.369Z,8.75
2019-04-23T10:16:25.346Z,9.88
2019-04-23T10:18:55.217Z,9.73
2019-04-23T10:21:26.906Z,9.23
2019-04-23T10:23:59.249Z,10.10
2019-04-23T10:26:32.239Z,11.48
2019-04-23T10:29:07.806Z,9.60
2019-04-23T10:31:40.064Z,8.88
2019-04-23T10:34:12.287Z,8.55
2019-04-23T10:36:44.726Z,8.85
2019-04-23T10:39:23.319Z,9.10
2019-04-23T10:41:52.237Z,9.43
2019-04-23T10:44:50.421Z,8.10
2019-04-23T10:48:11.922Z,10.13
2019-04-23T10:50:46.051Z,9.00
2019-04-23T10:55:54.148Z,9.00
2019-04-23T11:01:01.465Z,8.23
2019-04-23T11:03:49.271Z,8.90
2019-04-23T11:06:06.695Z,8.25
2019-04-23T11:08:36.721Z,8.58
2019-04-23T11:11:14.743Z,8.55
2019-04-23T11:13:50.427Z,9.45
2019-04-23T11:18:56.747Z,8.65
2019-04-23T11:21:31.367Z,9.13
2019-04-23T11:24:00.082Z,8.83
2019-04-23T11:26:38.807Z,8.83
2019-04-23T11:29:16.819Z,8.25
2019-04-23T11:31:41.145Z,8.23
2019-04-23T11:36:53.297Z,8.15
2019-04-23T11:38:02.677Z,10.58
2019-04-23T11:39:16.251Z,8.53
2019-04-23T11:41:57.846Z,8.58
2019-04-23T11:44:36.478Z,9.00
2019-04-23T11:54:35.598Z,8.18
2019-04-23T12:02:43.252Z,8.33
2019-04-23T12:05:26.882Z,13.30
2019-04-23T12:08:26.442Z,9.33
2019-04-23T12:11:00.230Z,9.83
2019-04-23T12:13:30.236Z,7.87
2019-04-23T12:18:51.419Z,7.78
2019-04-23T12:21:12.853Z,8.15
2019-04-23T12:23:54.651Z,8.08
2019-04-23T12:26:30.863Z,8.00
2019-04-23T12:28:49.923Z,8.00
2019-04-23T12:31:32.698Z,9.43
2019-04-23T12:34:09.615Z,8.93
2019-04-23T12:36:46.802Z,9.08
2019-04-23T12:39:27.012Z,9.63
2019-04-23T12:42:05.791Z,9.60
2019-04-23T12:44:31.526Z,9.43
2019-04-23T12:49:52.842Z,8.98
2019-04-23T12:52:12.186Z,9.28
2019-04-23T12:54:58.832Z,8.63
2019-04-23T12:57:17.438Z,8.45
2019-04-23T12:59:52.665Z,10.05
2019-04-23T13:02:33.511Z,8.65
2019-04-23T13:04:51.783Z,8.70
2019-04-23T13:07:33.522Z,9.50
2019-04-23T13:10:02.661Z,8.28
2019-04-23T13:12:44.932Z,10.38
2019-04-23T13:15:11.629Z,9.75
2019-04-23T13:20:19.506Z,8.93
2019-04-23T13:25:35.153Z,8.65
2019-04-23T13:28:06.899Z,10.45
2019-04-23T13:30:46.736Z,9.10
2019-04-23T13:33:30.165Z,9.95
2019-04-23T13:36:15.159Z,10.80
2019-04-23T13:38:32.099Z,8.18
2019-04-23T13:41:08.440Z,8.73
2019-04-23T13:43:42.508Z,9.35
2019-04-23T13:48:30.051Z,10.03
2019-04-23T13:51:23.804Z,10.20
2019-04-23T13:56:24.856Z,9.45
2019-04-23T13:58:55.044Z,11.25
2019-04-23T14:01:28.979Z,10.05
2019-04-23T14:04:27.089Z,12.70
2019-04-23T14:06:36.177Z,10.15
2019-04-23T14:09:20.407Z,12.60
2019-04-23T14:11:38.614Z,11.35
2019-04-23T14:14:25.022Z,11.35
2019-04-23T14:17:18.002Z,11.10
2019-04-23T14:19:16.405Z,13.95
2019-04-23T14:22:13.620Z,12.78
2019-04-23T14:24:38.112Z,10.13
2019-04-23T14:27:10.897Z,9.60
2019-04-23T14:32:15.737Z,9.65
2019-04-23T14:34:54.334Z,8.90
2019-04-23T14:37:23.674Z,9.73
2019-04-23T14:40:08.647Z,9.75
2019-04-23T14:43:03.564Z,9.10
2019-04-23T14:45:23.079Z,9.00
2019-04-23T14:47:40.368Z,9.60
2019-04-23T14:52:56.802Z,9.40
2019-04-23T14:58:10.523Z,9.60
2019-04-23T15:00:46.594Z,9.70
2019-04-23T15:03:25.204Z,8.78
2019-04-23T15:06:00.071Z,9.58
2019-04-23T15:08:24.277Z,9.70
2019-04-23T15:11:06.689Z,10.78
2019-04-23T15:13:28.243Z,11.55
2019-04-23T15:16:11.498Z,10.30
2019-04-23T15:18:59.847Z,12.10
2019-04-23T15:21:42.944Z,11.85
2019-04-23T15:24:00.848Z,12.65
2019-04-23T15:28:36.569Z,11.78
2019-04-23T15:31:33.018Z,10.48
2019-04-23T15:36:52.350Z,10.53
2019-04-23T15:39:16.354Z,10.63
2019-04-23T15:41:59.266Z,12.53
2019-04-23T15:44:13.267Z,10.88
2019-04-23T15:51:56.885Z,12.53
2019-04-23T15:54:35.709Z,11.30
2019-04-23T15:57:07.271Z,9.70
2019-04-23T16:01:43.751Z,9.65
2019-04-23T16:04:16.985Z,10.55
2019-04-23T16:06:47.846Z,10.63
2019-04-23T16:09:46.136Z,10.23
2019-04-23T16:12:17.697Z,10.25
2019-04-23T16:15:13.318Z,17.65
2019-04-23T16:17:28.975Z,10.53
2019-04-23T16:20:16.468Z,11.03
2019-04-23T16:22:39.791Z,11.55
2019-04-23T16:25:13.321Z,11.65
2019-04-23T16:27:50.404Z,10.95
2019-04-23T16:33:11.161Z,9.88
2019-04-23T16:40:54.689Z,11.75
2019-04-23T16:43:30.925Z,11.43
2019-04-23T16:46:07.351Z,11.73
2019-04-23T16:53:48.126Z,9.30
2019-04-23T16:59:00.045Z,9.93
2019-04-23T17:01:22.928Z,10.50
2019-04-23T17:04:03.838Z,9.30
2019-04-23T17:06:29.319Z,10.15
2019-04-23T17:08:59.893Z,15.10
2019-04-23T17:11:37.388Z,9.83
2019-04-23T17:14:16.311Z,9.38
2019-04-23T17:16:38.375Z,9.83
2019-04-23T17:19:16.227Z,9.28
2019-04-23T17:21:54.991Z,9.73
2019-04-23T17:27:03.754Z,9.65
2019-04-23T17:29:28.554Z,9.03
2019-04-23T17:32:16.533Z,9.00
2019-04-23T17:35:09.565Z,10.58
2019-04-23T17:37:43.078Z,9.35
2019-04-23T17:40:19.837Z,9.78
2019-04-23T17:43:01.673Z,11.00
2019-04-23T17:48:17.251Z,9.50
2019-04-23T17:51:02.952Z,9.75
2019-04-23T17:58:35.050Z,9.95
2019-04-23T18:06:30.162Z,10.05
2019-04-23T18:09:06.080Z,9.28
2019-04-23T18:11:25.266Z,9.38
2019-04-23T18:14:02.646Z,9.30
2019-04-23T18:16:41.693Z,10.43
2019-04-23T18:19:07.744Z,10.43
2019-04-23T18:21:58.948Z,10.28
2019-04-23T18:24:54.165Z,9.50
2019-04-23T18:27:23.393Z,10.18
2019-04-23T18:30:05.136Z,10.18
2019-04-23T18:32:43.422Z,9.58
2019-04-23T18:35:19.615Z,10.35
2019-04-23T18:37:44.172Z,10.03
2019-04-23T18:40:13.791Z,9.10
2019-04-23T18:45:32.085Z,8.78
2019-04-23T18:48:31.506Z,10.72
2019-04-23T18:50:57.048Z,8.80
2019-04-23T18:56:05.508Z,10.10
2019-04-23T18:58:35.034Z,8.83
2019-04-23T19:04:11.277Z,8.73
2019-04-23T19:06:47.347Z,7.90
2019-04-23T19:13:04.276Z,7.85
2019-04-23T19:15:35.348Z,8.00
2019-04-23T19:17:56.110Z,7.70
2019-04-23T19:25:40.503Z,7.45
2019-04-23T19:28:34.582Z,7.08
2019-04-23T19:31:27.617Z,6.65
2019-04-23T19:34:14.229Z,6.03
2019-04-23T19:36:51.292Z,6.75
2019-04-23T19:39:19.329Z,6.90
2019-04-23T19:41:57.538Z,6.80
2019-04-23T19:44:18.242Z,6.42
2019-04-23T19:49:35.645Z,7.30
2019-04-23T19:54:42.731Z,6.92
2019-04-23T19:57:01.922Z,7.05
2019-04-23T20:04:46.083Z,6.20
2019-04-23T20:07:22.767Z,6.37
2019-04-23T20:12:25.380Z,6.97
2019-04-23T20:15:00.163Z,7.10
2019-04-23T20:18:35.379Z,7.55
2019-04-23T20:20:19.409Z,8.05
2019-04-23T20:22:41.772Z,7.25
2019-04-23T20:27:42.246Z,7.30
2019-04-23T20:31:03.527Z,7.20
2019-04-23T20:36:25.830Z,7.05
2019-04-23T20:41:21.105Z,7.62
2019-04-23T20:43:59.011Z,7.22
2019-04-23T20:46:27.381Z,7.85
2019-04-23T20:49:00.797Z,7.80
2019-04-23T20:51:33.794Z,7.60
2019-04-23T20:54:08.825Z,7.70
2019-04-23T20:56:47.744Z,8.00
2019-04-23T20:59:17.630Z,8.08
2019-04-23T21:02:07.647Z,8.58
2019-04-23T21:04:41.050Z,8.30
2019-04-23T21:07:07.254Z,7.78
2019-04-23T21:09:53.043Z,8.13
2019-04-23T21:12:18.193Z,8.33
2019-04-23T21:14:57.842Z,8.25
2019-04-23T21:17:33.539Z,8.43
2019-04-23T21:19:59.503Z,7.80
2019-04-23T21:22:32.117Z,8.65
2019-04-23T21:25:00.273Z,8.28
2019-04-23T21:28:26.578Z,8.63
2019-04-23T21:30:55.402Z,8.55
2019-04-23T21:33:16.162Z,8.78
2019-04-23T21:38:58.612Z,9.03
2019-04-23T21:44:21.002Z,7.92
2019-04-23T21:46:49.522Z,8.58
2019-04-23T21:54:20.842Z,9.05
2019-04-23T21:56:55.419Z,9.28
2019-04-23T21:59:27.502Z,7.55
2019-04-23T22:02:03.987Z,8.70
2019-04-23T22:07:11.966Z,8.55
2019-04-23T22:09:48.426Z,7.97
2019-04-23T22:12:14.971Z,10.60
2019-04-23T22:14:51.990Z,8.43
2019-04-23T22:17:25.749Z,8.28
2019-04-23T22:20:05.896Z,8.23
2019-04-23T22:22:44.825Z,8.20
2019-04-23T22:24:57.541Z,8.00
2019-04-23T22:27:32.853Z,7.65
2019-04-23T22:30:04.645Z,7.33
2019-04-23T22:32:50.341Z,7.78
2019-04-23T22:35:10.518Z,8.88
2019-04-23T22:38:01.031Z,8.43
2019-04-23T22:40:15.076Z,7.62
2019-04-23T22:43:13.213Z,7.87
2019-04-23T22:45:31.882Z,9.18
2019-04-23T22:48:04.682Z,7.15
2019-04-23T22:50:43.725Z,8.18
2019-04-23T22:55:49.847Z,7.78
2019-04-23T23:01:19.734Z,7.90
2019-04-23T23:03:51.329Z,7.97
2019-04-23T23:06:29.549Z,8.33
2019-04-23T23:09:10.697Z,7.90
2019-04-23T23:11:34.910Z,7.92
2019-04-23T23:22:00.329Z,8.25
2019-04-23T23:24:18.247Z,7.42
2019-04-23T23:29:21.445Z,7.92
2019-04-23T23:32:03.904Z,6.95
2019-04-23T23:34:38.466Z,8.28
2019-04-23T23:37:07.523Z,8.48
2019-04-23T23:42:16.237Z,8.43
2019-04-23T23:44:57.812Z,9.35
2019-04-23T23:47:18.179Z,7.78
2019-04-23T23:50:01.177Z,7.97
2019-04-23T23:52:33.194Z,8.08
2019-04-23T23:55:01.756Z,7.72
2019-04-23T23:57:30.523Z,7.35
